Latest Weather Observations for Normanton

IDQ60801

Issued at 2:32 pm EST Monday 27 February 2017 (issued every 30 minutes, with the page automatically refreshed every 10 minutes)

About weather observations | Map of weather stations | Latest weather observations for QLD | Other Formats
Station Details ID: 029063 Name: NORMANTON AIRPORT Lat: -17.69 Lon: 141.07 Height: 18.42 m
Data from the previous 72 hours. | See also: Recent months at Normanton
Date/Time
EST
Temp
°C
App
Temp
°C
Dew
Point
°C
Rel
Hum
%
Delta-T
°C
Wind Press
QNH
hPa
Press
MSL
hPa
Rain since
9am
mm
Dir  Spd
km/h
Gust
km/h
Spd
kts
Gust
kts
27/02:30pm 33.9 35.5 19.9 43 9.3 E 11 19 6 10 1008.3 - 0.0
27/02:00pm 33.4 35.6 19.5 44 9.2 NE 7 20 4 11 1008.6 - 0.0
27/01:30pm 33.1 35.6 20.3 47 8.5 E 7 17 4 9 1009.0 - 0.0
27/01:00pm 33.0 36.1 22.1 52 7.4 S 9 20 5 11 1009.4 - 0.0
27/12:30pm 32.5 34.9 20.1 48 8.2 ENE 7 13 4 7 1010.1 - 0.0
27/12:00pm 32.0 34.8 20.9 52 7.4 ESE 7 17 4 9 1010.4 1010.3 0.0
27/11:30am 32.1 35.3 21.6 53 7.1 E 7 17 4 9 1010.8 - 0.0
27/11:00am 31.6 35.2 22.0 56 6.5 ENE 6 11 3 6 1011.1 - 0.0
27/10:30am 30.8 33.8 21.9 59 6.0 NNE 9 13 5 7 1011.1 - 0.0
27/10:00am 31.1 34.8 23.2 63 5.4 ENE 9 19 5 10 1011.7 - 0.0
27/09:30am 30.5 33.1 22.7 63 5.3 NNE 13 19 7 10 1011.5 - 0.0
27/09:00am 30.0 32.5 22.4 63 5.2 NE 13 20 7 11 1011.4 1011.1 0.0
27/08:30am 29.3 33.1 24.0 73 3.7 NE 11 17 6 9 1011.1 - 0.0
27/08:00am 28.4 32.8 24.4 79 2.8 NNE 9 13 5 7 1011.2 - 0.0
27/07:30am 27.5 32.7 25.1 87 1.7 NNE 7 11 4 6 1010.5 - 0.0
27/07:00am 26.7 32.5 26.0 96 0.5 NE 7 11 4 6 1010.2 - 0.0
27/06:30am 26.5 32.3 26.0 97 0.4 NE 7 9 4 5 1010.0 - 0.0
27/06:00am 26.5 32.3 26.0 97 0.4 NE 7 11 4 6 1009.7 1009.5 0.0
27/05:30am 26.6 32.3 25.9 96 0.5 NE 7 9 4 5 1009.1 - 0.0
27/05:00am 26.6 32.3 25.9 96 0.5 NNE 7 9 4 5 1008.7 - 0.0
27/04:30am 26.9 32.8 26.2 96 0.5 N 7 9 4 5 1008.6 - 0.0
27/04:00am 26.7 32.8 26.2 97 0.4 N 6 9 3 5 1008.5 - 0.0
27/03:30am 26.2 32.8 25.3 95 0.6 CALM 0 0 0 0 1008.5 - 0.0
27/03:00am 26.3 32.7 24.9 92 1.0 CALM 0 0 0 0 1008.4 1008.1 0.0
27/02:30am 26.9 33.5 25.3 91 1.1 CALM 0 0 0 0 1008.4 - 0.0
27/02:00am 27.3 34.2 25.7 91 1.1 CALM 0 0 0 0 1008.6 - 0.0
27/01:30am 27.2 33.4 25.8 92 1.0 WNW 4 6 2 3 1008.7 - 0.0
27/01:00am 27.1 32.8 25.9 93 0.8 WSW 7 9 4 5 1009.0 - 0.0
27/12:30am 27.4 32.8 26.0 92 1.0 NW 9 11 5 6 1009.1 - 0.0
27/12:00am 27.4 33.2 26.0 92 1.0 W 7 9 4 5 1009.3 1009.0 0.0
 
Date/Time
EST
Temp
°C
App
Temp
°C
Dew
Point
°C
Rel
Hum
%
Delta-T
°C
Wind Press
QNH
hPa
Press
MSL
hPa
Rain since
9am
mm
Dir  Spd
km/h
Gust
km/h
Spd
kts
Gust
kts
26/11:30pm 27.8 33.2 26.0 90 1.3 NW 9 11 5 6 1009.5 - 0.0
26/11:00pm 28.0 33.8 25.8 88 1.6 NW 6 7 3 4 1009.4 - 0.0
26/10:30pm 28.4 33.7 25.2 83 2.2 NNW 7 9 4 5 1009.0 - 0.0
26/10:00pm 28.8 34.1 25.0 80 2.7 NW 6 9 3 5 1008.9 - 0.0
26/09:30pm 28.5 34.1 23.6 75 3.4 CALM 0 0 0 0 1008.6 - 0.0
26/09:00pm 29.1 34.5 23.8 73 3.7 S 2 6 1 3 1008.4 1008.1 0.0
26/08:30pm 29.7 34.8 24.6 74 3.6 SSE 6 6 3 3 1008.0 - 0.0
26/08:00pm 30.3 33.7 22.7 64 5.2 SSE 9 11 5 6 1007.6 - 0.0
26/07:30pm 30.9 33.8 21.7 58 6.2 SSE 9 11 5 6 1007.5 - 0.0
26/07:00pm 31.6 34.2 21.2 54 7.0 SSE 9 13 5 7 1007.1 - 0.0
26/06:30pm 32.6 33.9 20.2 48 8.2 SSE 13 19 7 10 1006.8 - 0.0
26/06:00pm 33.1 33.7 20.3 47 8.5 SSE 17 24 9 13 1006.5 1006.3 0.0
26/05:30pm 33.6 33.8 19.3 43 9.4 SSE 17 24 9 13 1006.5 - 0.0
26/05:00pm 33.9 35.6 21.0 47 8.7 SSE 13 22 7 12 1006.5 - 0.0
26/04:30pm 33.7 36.6 21.8 49 8.1 ESE 9 17 5 9 1006.5 - 0.0
26/04:00pm 33.4 37.6 23.1 54 7.1 SE 6 11 3 6 1006.7 - 0.0
26/03:30pm 33.0 35.6 21.2 50 8.0 S 9 17 5 9 1006.7 - 0.0
26/03:00pm 33.4 36.7 21.9 51 7.8 SSE 7 17 4 9 1007.0 1006.8 0.0
26/02:30pm 33.0 36.5 22.1 52 7.4 NE 7 13 4 7 1007.3 - 0.0
26/02:00pm 32.6 35.0 21.5 52 7.5 E 11 20 6 11 1007.6 - 0.0
26/01:30pm 31.9 34.8 21.7 54 6.9 E 9 17 5 9 1008.0 - 0.0
26/01:00pm 31.6 34.2 22.0 56 6.5 E 11 19 6 10 1008.6 - 0.0
26/12:30pm 31.9 34.6 21.4 53 7.1 E 9 17 5 9 1009.0 - 0.0
26/12:00pm 31.3 33.6 22.0 57 6.3 E 13 19 7 10 1009.4 1009.2 0.0
26/11:30am 30.9 33.5 21.9 58 6.1 E 11 20 6 11 1009.9 - 0.0
26/11:00am 30.2 33.4 22.4 63 5.3 E 9 20 5 11 1010.3 - 0.0
26/10:30am 29.8 33.5 23.3 68 4.5 E 9 15 5 8 1010.4 - 0.0
26/10:00am 28.3 31.0 22.1 69 4.2 ESE 11 17 6 9 1010.6 - 0.0
26/09:30am 27.7 30.7 22.0 71 3.8 SSE 9 15 5 8 1010.6 - 0.0
26/09:00am 26.9 29.6 22.1 75 3.2 SE 11 17 6 9 1010.4 1010.2 0.0
26/08:30am 27.0 30.7 22.6 77 3.0 ESE 7 15 4 8 1010.4 - 0.0
26/08:00am 25.9 28.9 22.0 79 2.6 SE 9 13 5 7 1010.1 - 0.0
26/07:30am 25.5 29.2 22.2 82 2.2 ESE 6 11 3 6 1009.7 - 0.0
26/07:00am 24.3 29.4 22.6 90 1.1 CALM 0 0 0 0 1009.3 - 0.0
26/06:30am 24.4 27.5 22.1 87 1.5 NNE 9 13 5 7 1008.9 - 0.0
26/06:00am 24.4 27.1 22.1 87 1.5 NNE 11 17 6 9 1008.9 1008.7 0.0
26/05:30am 24.4 28.0 22.3 88 1.4 NNE 7 13 4 7 1009.1 - 0.0
26/05:00am 24.7 27.6 22.4 87 1.5 NNE 11 20 6 11 1008.9 - 0.0
26/04:30am 24.7 27.9 22.4 87 1.5 N 9 13 5 7 1009.0 - 0.0
26/04:00am 24.9 27.4 22.4 86 1.7 N 13 17 7 9 1009.2 - 0.0
26/03:30am 25.0 26.7 22.3 85 1.8 N 17 26 9 14 1009.1 - 0.0
26/03:00am 25.3 26.9 22.2 83 2.1 NNE 17 28 9 15 1008.9 1008.7 0.0
26/02:30am 25.7 27.5 22.6 83 2.1 NNE 17 26 9 14 1008.9 - 0.0
26/02:00am 26.2 27.9 22.3 79 2.6 NE 17 26 9 14 1008.9 - 0.0
26/01:30am 27.0 29.3 22.0 74 3.4 NE 13 22 7 12 1008.8 - 0.0
26/01:00am 27.7 29.2 22.0 71 3.8 NE 17 28 9 15 1009.1 - 0.0
26/12:30am 27.5 29.6 22.4 73 3.4 ENE 15 28 8 15 1009.3 - 0.0
26/12:00am 28.3 33.1 25.1 83 2.2 NNW 9 13 5 7 1008.7 1008.5 0.0
 
Date/Time
EST
Temp
°C
App
Temp
°C
Dew
Point
°C
Rel
Hum
%
Delta-T
°C
Wind Press
QNH
hPa
Press
MSL
hPa
Rain since
9am
mm
Dir  Spd
km/h
Gust
km/h
Spd
kts
Gust
kts
25/11:30pm 28.4 33.0 25.4 84 2.1 NNW 11 13 6 7 1008.7 - 0.0
25/11:00pm 28.5 32.7 25.3 83 2.3 NNW 13 15 7 8 1009.1 - 0.0
25/10:44pm 28.6 33.0 25.6 84 2.1 NW 13 20 7 11 1009.1 - 0.0
25/10:30pm 28.9 34.1 26.3 86 1.9 NNW 11 15 6 8 1008.9 - 0.0
25/10:17pm 28.9 34.1 26.3 86 1.9 NW 11 13 6 7 1009.0 - 0.0
25/10:00pm 28.9 34.4 26.1 85 2.0 WNW 9 11 5 6 1008.9 - 0.0
25/09:30pm 29.1 34.7 25.7 82 2.4 WNW 7 9 4 5 1008.5 - 0.0
25/09:00pm 29.7 36.0 24.8 75 3.4 CALM 0 0 0 0 1008.2 1008.0 0.0
25/08:30pm 30.2 34.5 23.6 67 4.6 SSE 7 7 4 4 1007.9 - 0.0
25/08:05pm 30.3 34.7 23.5 67 4.7 SSE 6 7 3 4 1007.9 - 0.0
25/08:00pm 30.3 34.8 23.7 68 4.6 S 6 7 3 4 1007.8 - 0.0
25/07:49pm 30.2 34.9 23.9 69 4.4 S 6 7 3 4 1007.7 - 0.0
25/07:30pm 30.7 35.3 24.1 68 4.6 S 7 9 4 5 1007.4 - 0.0
25/07:00pm 31.6 36.1 23.9 63 5.4 S 7 11 4 6 1007.1 - 0.0
25/06:30pm 32.8 37.2 23.4 57 6.5 SSE 6 11 3 6 1006.6 - 0.0
25/06:00pm 32.7 38.7 24.2 61 6.0 CALM 0 0 0 0 1006.4 1006.2 0.0
25/05:30pm 33.1 37.4 21.9 51 7.6 SE 2 7 1 4 1006.3 - 0.0
25/05:00pm 34.2 38.2 21.3 47 8.7 E 2 11 1 6 1006.3 - 0.0
25/04:30pm 34.0 37.3 21.8 49 8.3 ESE 7 17 4 9 1006.7 - 0.0
25/04:00pm 34.2 39.0 22.9 51 7.8 SE 2 9 1 5 1006.9 - 0.0
25/03:30pm 33.5 37.4 22.6 53 7.5 ENE 6 13 3 7 1007.1 - 0.0
25/03:00pm 33.2 37.1 22.9 54 7.1 E 7 15 4 8 1007.5 1007.3 0.0
25/02:30pm 33.1 36.8 22.2 52 7.4 E 6 13 3 7 1008.0 - 0.0
25/02:00pm 33.1 37.3 22.5 53 7.3 ESE 4 15 2 8 1008.3 - 0.0
25/01:30pm 32.7 37.5 22.8 56 6.8 S 2 13 1 7 1008.7 - 0.0
25/01:00pm 32.6 37.3 22.7 56 6.8 ESE 2 11 1 6 1009.1 - 0.0
25/12:30pm 32.1 35.9 22.8 58 6.4 NE 7 11 4 6 1009.6 - 0.0
25/12:00pm 31.9 36.0 22.9 59 6.2 E 6 13 3 7 1010.2 1010.0 0.0
25/11:30am 31.2 35.4 24.1 66 4.9 NE 9 19 5 10 1010.8 - 0.0
25/11:00am 30.7 35.2 23.9 67 4.7 ENE 7 15 4 8 1011.2 - 0.0
25/10:30am 30.3 34.2 23.0 65 5.0 E 7 13 4 7 1011.3 - 0.0
25/10:00am 30.3 34.7 23.5 67 4.7 ENE 6 9 3 5 1011.2 - 0.0
25/09:30am 29.1 33.8 22.6 68 4.4 WSW 2 9 1 5 1011.3 - 0.0
25/09:00am 28.6 33.1 22.3 68 4.3 NE 2 7 1 4 1011.5 1011.3 0.0
25/08:30am 27.5 32.4 22.4 73 3.4 CALM 0 0 0 0 1011.5 - 0.0
25/08:00am 26.7 30.9 22.5 78 2.8 NNE 4 7 2 4 1011.4 - 0.0
25/07:30am 26.4 30.5 22.9 81 2.4 N 6 9 3 5 1011.4 - 0.0
25/07:00am 26.2 29.9 22.5 80 2.5 N 7 9 4 5 1011.3 - 0.0
25/06:30am 26.2 30.2 23.1 83 2.1 N 7 11 4 6 1011.0 - 0.0
25/06:00am 26.3 30.1 23.4 84 2.0 N 9 13 5 7 1010.5 1010.3 0.0
25/05:30am 26.2 29.9 23.3 84 2.0 NNE 9 13 5 7 1009.8 - 0.0
25/05:00am 26.0 30.3 23.7 87 1.6 N 7 9 4 5 1009.8 - 0.0
25/04:30am 26.1 30.1 23.8 87 1.6 N 9 11 5 6 1009.6 - 0.0
25/04:00am 26.2 30.4 24.1 88 1.4 N 9 11 5 6 1009.5 - 0.0
25/03:30am 26.4 30.2 24.1 87 1.6 N 11 15 6 8 1009.7 - 0.0
25/03:00am 26.6 30.5 24.3 87 1.6 N 11 15 6 8 1009.9 1009.7 0.0
25/02:30am 26.9 30.7 24.0 84 2.0 N 11 17 6 9 1010.2 - 0.0
25/02:00am 27.2 31.0 24.1 83 2.1 N 11 17 6 9 1010.3 - 0.0
25/01:30am 27.4 30.7 23.8 81 2.5 N 13 20 7 11 1010.3 - 0.0
25/01:00am 27.5 30.3 23.7 80 2.6 N 15 20 8 11 1010.2 - 0.0
25/12:30am 27.9 31.6 23.3 76 3.1 N 9 15 5 8 1010.4 - 0.0
25/12:00am 28.2 32.0 24.0 78 2.9 NNE 11 17 6 9 1010.5 1010.3 0.0
 
Date/Time
EST
Temp
°C
App
Temp
°C
Dew
Point
°C
Rel
Hum
%
Delta-T
°C
Wind Press
QNH
hPa
Press
MSL
hPa
Rain since
9am
mm
Dir  Spd
km/h
Gust
km/h
Spd
kts
Gust
kts
24/11:30pm 27.4 31.9 23.0 77 3.0 SW 4 9 2 5 1010.3 - 0.0
24/11:00pm 27.4 32.6 23.6 80 2.6 SW 2 7 1 4 1010.6 - 0.0
24/10:30pm 27.5 32.1 23.1 77 3.0 WSW 4 7 2 4 1010.7 - 0.0
24/10:00pm 27.4 31.5 22.3 73 3.4 WSW 4 7 2 4 1010.7 - 0.0
24/09:30pm 27.3 30.7 22.0 73 3.6 NNW 7 11 4 6 1011.1 - 0.0
24/09:00pm 27.3 29.0 20.1 64 4.7 NE 11 17 6 9 1011.1 1010.9 0.0
24/08:35pm 29.0 27.9 21.0 62 5.3 E 28 44 15 24 1010.8 - 0.0
24/08:30pm 30.8 34.3 24.2 68 4.6 S 13 15 7 8 1010.2 - 0.0
24/08:00pm 30.6 35.5 24.7 71 4.1 SSW 7 9 4 5 1009.5 - 0.0
24/07:30pm 31.3 35.7 23.4 63 5.5 S 6 7 3 4 1009.3 - 0.0
24/07:00pm 32.4 35.9 22.8 57 6.6 SSE 9 11 5 6 1008.6 - 0.0
24/06:30pm 33.5 36.1 22.0 51 7.8 SSE 11 19 6 10 1008.2 - 0.0
24/06:00pm 33.9 35.4 22.0 49 8.1 S 17 20 9 11 1007.8 1007.6 0.0
24/05:30pm 34.1 36.0 22.8 51 7.8 S 17 22 9 12 1007.6 - 0.0
24/05:00pm 34.4 36.1 23.1 51 7.8 S 19 28 10 15 1007.5 - 0.0
24/04:30pm 34.5 37.0 23.2 51 7.8 SSE 15 24 8 13 1007.7 - 0.0
24/04:00pm 34.5 36.8 23.5 52 7.7 S 17 24 9 13 1008.2 - 0.0
24/03:30pm 34.6 37.0 23.6 52 7.7 S 17 24 9 13 1008.7 - 0.0
24/03:00pm 34.2 37.7 24.2 56 7.0 S 13 20 7 11 1009.3 1009.2 0.0

Other Formats:

Comma delimited format used in spreadsheet applications
http://www.bom.gov.au/fwo/IDQ60801/IDQ60801.94266.axf

JavaScript Object Notation format (JSON) in row-major order
http://www.bom.gov.au/fwo/IDQ60801/IDQ60801.94266.json